Time;durP1;ratioP1;P1;durP2;ratioP2;P2;SDS_P1;SDS_P2;PMS_P1;PMS_P2;Temp;Humidity;BMP_temperature;BMP_pressure;BME280_temperature;BME280_humidity;BME280_pressure;Samples;Min_cycle;Max_cycle;Signal;HPM_P1;HPM_P2
2021/12/07 00:00:14;;;;;;;2.50;2.35;;;2.80;99.90;;;;;;5069097;28;20225;-67
2021/12/07 00:02:42;;;;;;;2.28;2.13;;;2.80;99.90;;;;;;5056689;28;20192;-67
2021/12/07 00:05:09;;;;;;;1.85;1.73;;;2.90;99.90;;;;;;5067937;28;20232;-65
2021/12/07 00:07:36;;;;;;;1.55;1.20;;;2.90;99.90;;;;;;5069376;28;20198;-68
2021/12/07 00:10:04;;;;;;;2.35;2.15;;;2.90;99.90;;;;;;5056689;28;20224;-66
2021/12/07 00:12:35;;;;;;;2.40;1.40;;;2.90;99.90;;;;;;5069628;28;20195;-66
2021/12/07 00:15:03;;;;;;;2.30;2.13;;;2.90;99.90;;;;;;5069319;28;20539;-68
2021/12/07 00:17:32;;;;;;;2.97;2.30;;;2.80;99.90;;;;;;5068514;28;20216;-66
2021/12/07 00:19:59;;;;;;;1.65;1.55;;;2.80;99.90;;;;;;5085200;28;20687;-68
2021/12/07 00:22:26;;;;;;;2.38;1.88;;;2.90;99.90;;;;;;5049543;28;20577;-67
2021/12/07 00:24:53;;;;;;;1.90;1.77;;;2.90;99.90;;;;;;5052791;28;20256;-66
2021/12/07 00:27:21;;;;;;;1.20;1.10;;;2.90;99.90;;;;;;5068533;28;20256;-66
2021/12/07 00:29:48;;;;;;;1.73;1.00;;;2.90;99.90;;;;;;5067452;28;20273;-66
2021/12/07 00:32:23;;;;;;;2.45;1.42;;;2.90;99.90;;;;;;5066463;28;20762;-64
2021/12/07 00:35:23;;;;;;;0.95;0.65;;;2.80;99.90;;;;;;5076804;28;20731;-68
2021/12/07 00:37:53;;;;;;;0.88;0.80;;;2.80;99.90;;;;;;5060320;28;20293;-67
2021/12/07 00:40:22;;;;;;;1.33;1.23;;;2.70;99.90;;;;;;5051643;28;20754;-67
2021/12/07 00:42:50;;;;;;;1.77;1.58;;;2.60;99.90;;;;;;5067965;28;20238;-66
2021/12/07 00:45:20;;;;;;;1.63;1.52;;;2.50;99.90;;;;;;5057624;28;20212;-67
2021/12/07 00:47:48;;;;;;;0.90;0.90;;;2.40;99.90;;;;;;5058590;28;20258;-66
2021/12/07 00:50:15;;;;;;;0.70;0.60;;;2.40;99.90;;;;;;5047776;28;20327;-67
2021/12/07 00:52:42;;;;;;;0.50;0.47;;;2.40;99.90;;;;;;5051348;28;20204;-65
2021/12/07 00:55:13;;;;;;;1.25;0.95;;;2.30;99.90;;;;;;5063881;28;20819;-67
2021/12/07 00:57:40;;;;;;;1.00;0.90;;;2.20;99.90;;;;;;5067507;28;20262;-65
2021/12/07 01:00:11;;;;;;;0.88;0.88;;;2.20;99.90;;;;;;5066741;28;20226;-66
2021/12/07 01:02:38;;;;;;;0.70;0.70;;;2.10;99.90;;;;;;5068225;28;20225;-65
2021/12/07 01:05:13;;;;;;;1.40;1.30;;;2.10;99.90;;;;;;5083152;28;20204;-65
2021/12/07 01:07:56;;;;;;;1.20;1.10;;;2.20;99.90;;;;;;5072299;28;20281;-66
2021/12/07 01:26:52;;;;;;;2.60;1.85;;;2.50;99.90;;;;;;5062465;28;20754;-65
2021/12/07 01:29:22;;;;;;;1.42;1.33;;;2.60;99.90;;;;;;5067019;28;20342;-65
2021/12/07 01:31:58;;;;;;;2.80;2.25;;;2.60;99.90;;;;;;5066954;28;20197;-66
2021/12/07 01:34:51;;;;;;;2.33;2.00;;;2.70;99.90;;;;;;5066702;28;20282;-67
2021/12/07 01:37:31;;;;;;;1.52;1.20;;;2.90;99.90;;;;;;5065853;28;20285;-67
2021/12/07 01:40:26;;;;;;;2.17;1.98;;;3.10;99.90;;;;;;5065718;28;20218;-65
2021/12/07 01:43:27;;;;;;;3.50;2.85;;;3.20;99.90;;;;;;5064211;28;20302;-65
2021/12/07 01:46:36;;;;;;;3.83;3.15;;;3.40;99.90;;;;;;5067134;28;20214;-65
2021/12/07 01:59:54;;;;;;;3.72;3.42;;;3.90;99.90;;;;;;5081798;28;20299;-65
2021/12/07 02:02:25;;;;;;;4.85;3.78;;;3.90;99.90;;;;;;5068167;28;20246;-65
2021/12/07 02:04:55;;;;;;;3.58;3.38;;;4.00;99.90;;;;;;5076046;28;20678;-65
2021/12/07 02:07:23;;;;;;;3.35;3.05;;;4.00;99.90;;;;;;5071025;28;20208;-65
2021/12/07 02:09:55;;;;;;;4.88;2.60;;;4.00;99.90;;;;;;5069747;28;20228;-65
2021/12/07 02:12:22;;;;;;;6.22;3.60;;;4.00;99.90;;;;;;5075808;28;20193;-66
2021/12/07 02:14:49;;;;;;;2.33;2.13;;;4.00;99.90;;;;;;5071922;28;20204;-66
2021/12/07 02:17:21;;;;;;;2.50;2.35;;;4.10;99.90;;;;;;5079727;28;20196;-66
2021/12/07 02:19:48;;;;;;;2.30;2.10;;;4.10;99.90;;;;;;5086179;28;20220;-65
2021/12/07 02:22:17;;;;;;;3.60;3.40;;;4.10;99.90;;;;;;5070709;28;20195;-65
2021/12/07 02:24:44;;;;;;;3.05;2.08;;;4.10;99.90;;;;;;5071258;28;20231;-65
2021/12/07 02:27:10;;;;;;;2.53;2.33;;;4.10;99.90;;;;;;5070934;28;20198;-65
2021/12/07 02:29:37;;;;;;;1.98;1.73;;;4.10;99.90;;;;;;5082216;28;20274;-66
2021/12/07 02:32:05;;;;;;;2.40;2.20;;;4.20;99.90;;;;;;5071088;28;20239;-65
2021/12/07 02:34:35;;;;;;;7.63;3.00;;;4.20;99.90;;;;;;5071680;28;20197;-64
2021/12/07 02:37:02;;;;;;;2.40;2.20;;;4.20;99.90;;;;;;5069192;28;20253;-65
2021/12/07 02:39:33;;;;;;;6.13;2.33;;;4.20;99.90;;;;;;5068939;28;20224;-65
2021/12/07 02:42:02;;;;;;;3.33;2.83;;;4.30;99.90;;;;;;5068434;28;20259;-63
2021/12/07 02:44:29;;;;;;;3.17;2.13;;;4.30;99.90;;;;;;5070285;28;20205;-65
2021/12/07 02:46:56;;;;;;;5.78;2.42;;;4.30;99.90;;;;;;5062043;28;20211;-65
2021/12/07 02:49:23;;;;;;;3.80;2.63;;;4.30;99.90;;;;;;5049140;28;20683;-64
2021/12/07 02:51:49;;;;;;;5.70;3.72;;;4.30;99.90;;;;;;5066033;28;20624;-66
2021/12/07 02:54:17;;;;;;;3.67;1.80;;;4.40;99.90;;;;;;5070014;28;20259;-64
2021/12/07 02:56:45;;;;;;;6.97;4.55;;;4.40;99.90;;;;;;5068323;28;20210;-65
2021/12/07 02:59:13;;;;;;;5.70;4.55;;;4.50;99.90;;;;;;5067785;28;20302;-64
2021/12/07 03:01:46;;;;;;;2.75;2.42;;;4.50;99.90;;;;;;5069855;28;20220;-65
2021/12/07 03:04:20;;;;;;;8.77;3.35;;;4.50;99.90;;;;;;5068873;28;20206;-64
2021/12/07 03:07:00;;;;;;;2.97;2.50;;;4.50;99.90;;;;;;5070835;28;20271;-65
2021/12/07 03:09:50;;;;;;;5.00;3.30;;;4.50;99.90;;;;;;5069514;28;20729;-64
2021/12/07 03:26:12;;;;;;;3.33;2.30;;;4.60;99.90;;;;;;5030793;28;20258;-64
2021/12/07 03:28:42;;;;;;;7.20;3.45;;;4.70;99.90;;;;;;5058391;28;20294;-65
2021/12/07 03:31:09;;;;;;;3.63;3.30;;;4.80;99.90;;;;;;5069800;28;20226;-65
2021/12/07 03:33:38;;;;;;;10.18;3.65;;;4.80;99.90;;;;;;5069395;28;20286;-67
2021/12/07 03:36:06;;;;;;;3.47;2.75;;;4.90;99.90;;;;;;5069224;28;20206;-65
2021/12/07 03:38:33;;;;;;;2.38;1.90;;;4.90;99.90;;;;;;5067426;28;20220;-65
2021/12/07 03:41:00;;;;;;;2.72;2.05;;;4.80;99.90;;;;;;5068245;28;20675;-64
2021/12/07 03:43:27;;;;;;;5.82;2.90;;;4.80;99.90;;;;;;5054093;28;20728;-65
2021/12/07 03:45:55;;;;;;;1.65;1.55;;;4.90;99.90;;;;;;5056671;28;20201;-67
2021/12/07 03:48:22;;;;;;;9.40;2.72;;;4.80;99.90;;;;;;5070315;28;20278;-66
2021/12/07 03:50:49;;;;;;;1.83;1.60;;;4.90;99.90;;;;;;5069604;28;20264;-65
2021/12/07 03:53:16;;;;;;;3.65;2.05;;;4.90;99.90;;;;;;5067801;28;20650;-65
2021/12/07 03:55:44;;;;;;;5.03;2.55;;;4.90;99.90;;;;;;5067719;28;20529;-65
2021/12/07 03:58:12;;;;;;;2.05;1.83;;;4.90;99.90;;;;;;5066073;28;20578;-65
2021/12/07 04:00:41;;;;;;;2.67;2.47;;;4.90;99.90;;;;;;5051407;28;20216;-65
2021/12/07 04:03:12;;;;;;;4.30;2.50;;;4.90;99.90;;;;;;5067175;28;20233;-64
2021/12/07 04:05:45;;;;;;;1.88;1.77;;;4.90;99.90;;;;;;5067286;28;20206;-65
2021/12/07 04:08:13;;;;;;;5.55;3.17;;;4.90;99.90;;;;;;5068881;28;20245;-65
2021/12/07 04:10:40;;;;;;;2.70;1.77;;;4.90;99.90;;;;;;5052960;28;20694;-65
2021/12/07 04:13:07;;;;;;;2.42;2.13;;;4.90;99.90;;;;;;5068394;28;20202;-64
2021/12/07 04:15:34;;;;;;;3.38;2.10;;;4.90;99.90;;;;;;5068916;28;20643;-64
2021/12/07 04:18:00;;;;;;;3.80;3.42;;;4.80;99.90;;;;;;5066079;28;20299;-64
2021/12/07 04:20:29;;;;;;;4.00;2.00;;;4.80;99.90;;;;;;5066124;28;20218;-67
2021/12/07 04:22:56;;;;;;;3.47;2.50;;;4.80;99.90;;;;;;5066195;28;20623;-67
2021/12/07 04:25:24;;;;;;;1.73;1.35;;;4.80;99.90;;;;;;5065698;28;20242;-66
2021/12/07 04:27:51;;;;;;;4.13;2.58;;;4.80;99.90;;;;;;5067147;28;20720;-64
2021/12/07 04:30:20;;;;;;;4.32;2.25;;;4.70;99.90;;;;;;5076222;28;20229;-65
2021/12/07 04:32:46;;;;;;;6.10;3.72;;;4.70;99.90;;;;;;5083913;28;20252;-64
2021/12/07 04:35:14;;;;;;;4.07;2.75;;;4.80;99.90;;;;;;5055603;28;20212;-65
2021/12/07 04:37:42;;;;;;;4.28;2.70;;;4.80;99.90;;;;;;5053822;28;20286;-65
2021/12/07 04:40:13;;;;;;;13.25;3.95;;;4.80;99.90;;;;;;5067304;28;20218;-65
2021/12/07 04:42:40;;;;;;;5.75;3.67;;;4.80;99.90;;;;;;5067600;28;20204;-67
2021/12/07 04:45:09;;;;;;;3.30;2.35;;;4.70;99.90;;;;;;5066887;28;20276;-65
2021/12/07 04:47:45;;;;;;;4.05;3.10;;;4.70;99.90;;;;;;5066481;28;20616;-65
2021/12/07 04:50:42;;;;;;;15.48;3.58;;;4.70;99.90;;;;;;5064773;28;20541;-65
2021/12/07 04:58:39;;;;;;;3.60;2.95;;;4.70;99.90;;;;;;5067292;28;20277;-69
2021/12/07 05:01:10;;;;;;;7.03;3.67;;;4.80;99.90;;;;;;5071522;28;20260;-65
2021/12/07 05:03:37;;;;;;;3.47;3.17;;;4.70;99.90;;;;;;5078282;28;20214;-65
2021/12/07 05:06:06;;;;;;;4.20;2.60;;;4.70;99.90;;;;;;5048558;28;20212;-64
2021/12/07 05:08:40;;;;;;;5.53;2.75;;;4.60;99.90;;;;;;5068048;28;20257;-64
2021/12/07 05:11:28;;;;;;;4.70;3.55;;;4.50;99.90;;;;;;5072563;28;20213;-66
2021/12/07 05:14:10;;;;;;;7.57;3.03;;;4.50;99.90;;;;;;5092158;28;20211;-66
2021/12/07 05:16:50;;;;;;;1.73;1.63;;;4.40;99.90;;;;;;5098248;28;20237;-66
2021/12/07 05:25:12;;;;;;;3.20;2.90;;;4.30;99.90;;;;;;5080334;28;20589;-67
2021/12/07 05:38:32;;;;;;;3.00;2.28;;;4.20;99.90;;;;;;5054722;28;20641;-67
2021/12/07 05:41:01;;;;;;;4.75;3.55;;;4.20;99.90;;;;;;5066034;28;20213;-67
2021/12/07 05:43:27;;;;;;;3.63;3.30;;;4.20;99.90;;;;;;5069202;28;20208;-67
2021/12/07 05:45:54;;;;;;;12.75;5.70;;;4.10;99.90;;;;;;5060528;28;20650;-66
2021/12/07 05:48:21;;;;;;;3.88;2.80;;;4.10;99.90;;;;;;5070185;28;20214;-65
2021/12/07 05:50:47;;;;;;;2.13;1.92;;;4.10;99.90;;;;;;5057251;28;20226;-66
2021/12/07 05:53:15;;;;;;;1.80;1.70;;;4.20;99.90;;;;;;5072952;28;20296;-65
2021/12/07 05:55:42;;;;;;;8.95;3.00;;;4.20;99.90;;;;;;5076563;28;20713;-66
2021/12/07 05:58:12;;;;;;;12.90;2.50;;;4.20;99.90;;;;;;5065090;28;20347;-66
2021/12/07 06:00:42;;;;;;;1.58;1.48;;;4.30;99.90;;;;;;5087606;28;20209;-66
2021/12/07 06:03:10;;;;;;;7.93;3.78;;;4.20;99.90;;;;;;5091572;28;20260;-66
2021/12/07 06:05:42;;;;;;;2.55;2.35;;;4.20;99.90;;;;;;5094355;28;20208;-65
2021/12/07 06:08:09;;;;;;;4.97;3.17;;;4.10;99.90;;;;;;5086423;28;20207;-65
2021/12/07 06:10:37;;;;;;;3.67;3.03;;;4.10;99.90;;;;;;5073401;28;20233;-66
2021/12/07 06:13:04;;;;;;;3.25;2.90;;;4.10;99.90;;;;;;5062556;28;20576;-66
2021/12/07 06:15:34;;;;;;;7.28;2.20;;;4.10;99.90;;;;;;5064204;28;20342;-66
2021/12/07 06:18:01;;;;;;;2.03;1.83;;;4.10;99.90;;;;;;5065343;28;20777;-66
2021/12/07 06:20:28;;;;;;;3.80;3.50;;;4.10;99.90;;;;;;5065628;28;20303;-66
2021/12/07 06:22:55;;;;;;;1.98;1.77;;;4.00;99.90;;;;;;5066600;28;20235;-66
2021/12/07 06:25:21;;;;;;;2.45;2.28;;;3.90;99.90;;;;;;5071017;28;20280;-67
2021/12/07 06:27:48;;;;;;;8.23;3.58;;;4.00;99.90;;;;;;5067548;28;20202;-67
2021/12/07 06:30:15;;;;;;;3.47;2.40;;;4.00;99.90;;;;;;5069175;28;20260;-66
2021/12/07 06:32:44;;;;;;;1.80;1.70;;;4.00;99.90;;;;;;5087859;28;20335;-67
2021/12/07 06:35:11;;;;;;;2.30;2.10;;;3.90;99.90;;;;;;5090273;28;20213;-66
2021/12/07 06:37:38;;;;;;;5.80;3.50;;;3.90;99.90;;;;;;5084906;28;20558;-67
2021/12/07 06:40:07;;;;;;;2.22;1.80;;;3.90;99.90;;;;;;5081770;28;20220;-67
2021/12/07 06:42:36;;;;;;;3.20;2.58;;;3.90;99.90;;;;;;5075122;28;20203;-70
2021/12/07 06:45:02;;;;;;;2.83;2.63;;;3.90;99.90;;;;;;5091889;28;20204;-67
2021/12/07 06:47:29;;;;;;;3.58;2.65;;;4.00;99.90;;;;;;5075714;28;20223;-70
2021/12/07 06:49:57;;;;;;;3.35;1.73;;;4.00;99.90;;;;;;5070072;28;20564;-67
2021/12/07 06:52:23;;;;;;;8.88;1.65;;;4.00;99.90;;;;;;5082481;28;20363;-68
2021/12/07 06:54:50;;;;;;;2.40;1.60;;;4.00;99.90;;;;;;5078275;28;20741;-66
2021/12/07 06:57:17;;;;;;;2.65;2.35;;;3.90;99.90;;;;;;5069023;28;20209;-67
2021/12/07 06:59:45;;;;;;;1.90;1.80;;;3.90;99.90;;;;;;5070093;28;20290;-67
2021/12/07 07:02:12;;;;;;;2.58;1.73;;;3.90;99.90;;;;;;5084044;28;20516;-66
2021/12/07 07:04:38;;;;;;;3.45;1.50;;;3.90;99.90;;;;;;5090814;28;20653;-67
2021/12/07 07:07:07;;;;;;;5.25;1.92;;;3.80;99.90;;;;;;5085263;28;20658;-67
2021/12/07 07:09:33;;;;;;;9.35;2.28;;;3.80;99.90;;;;;;5076950;28;20229;-67
2021/12/07 07:12:00;;;;;;;2.33;1.17;;;3.80;99.90;;;;;;5086886;28;20445;-67
2021/12/07 07:14:26;;;;;;;3.42;1.60;;;3.80;99.90;;;;;;5083043;28;20230;-69
2021/12/07 07:16:53;;;;;;;7.72;2.45;;;3.80;99.90;;;;;;5087581;28;20260;-68
2021/12/07 07:19:20;;;;;;;5.53;2.65;;;3.80;99.90;;;;;;5072181;28;20224;-68
2021/12/07 07:21:46;;;;;;;1.70;1.60;;;3.80;99.90;;;;;;5073939;28;20214;-66
2021/12/07 07:24:14;;;;;;;3.58;1.92;;;3.80;99.90;;;;;;5069413;28;20217;-69
2021/12/07 07:26:41;;;;;;;0.93;0.93;;;3.80;99.90;;;;;;5086015;28;20260;-68
2021/12/07 07:29:08;;;;;;;14.35;3.63;;;3.80;99.90;;;;;;5077313;28;20229;-67
2021/12/07 07:31:36;;;;;;;3.72;2.97;;;3.80;99.90;;;;;;5070404;28;20282;-67
2021/12/07 07:34:03;;;;;;;2.30;1.35;;;3.80;99.90;;;;;;5086812;28;20204;-67
2021/12/07 07:36:30;;;;;;;1.23;0.98;;;3.80;99.90;;;;;;5088752;28;20668;-69
2021/12/07 07:38:56;;;;;;;3.35;2.25;;;3.80;99.90;;;;;;5073427;28;20289;-68
2021/12/07 07:41:25;;;;;;;5.78;1.45;;;3.80;99.90;;;;;;5075005;28;20201;-67
2021/12/07 07:43:52;;;;;;;4.82;2.10;;;3.80;99.90;;;;;;5075961;28;20210;-68
2021/12/07 07:46:19;;;;;;;8.35;2.33;;;3.80;99.90;;;;;;5085032;28;20276;-68
2021/12/07 07:48:46;;;;;;;4.45;1.70;;;3.80;99.90;;;;;;5085059;28;20456;-67
2021/12/07 07:51:13;;;;;;;6.75;2.95;;;3.80;99.90;;;;;;5068329;28;20233;-68
2021/12/07 07:53:40;;;;;;;6.47;1.77;;;3.80;99.90;;;;;;5074191;28;20266;-69
2021/12/07 07:56:07;;;;;;;0.90;0.90;;;3.70;99.90;;;;;;5081457;28;20366;-67
2021/12/07 07:58:35;;;;;;;2.67;1.27;;;3.70;99.90;;;;;;5074510;28;20253;-68
2021/12/07 08:01:02;;;;;;;5.30;2.42;;;3.70;99.90;;;;;;5073414;28;20202;-68
2021/12/07 08:03:29;;;;;;;1.75;1.27;;;3.70;99.90;;;;;;5078319;28;20204;-68
2021/12/07 08:05:55;;;;;;;1.30;1.20;;;3.60;99.90;;;;;;5070843;28;20211;-66
2021/12/07 08:08:22;;;;;;;3.78;2.30;;;3.60;99.90;;;;;;5077398;28;20285;-69
2021/12/07 08:10:49;;;;;;;2.63;1.95;;;3.60;99.90;;;;;;5054701;28;20348;-69
2021/12/07 08:13:18;;;;;;;2.33;2.13;;;3.50;99.90;;;;;;5073043;28;20218;-69
2021/12/07 08:15:48;;;;;;;1.70;1.60;;;3.50;99.90;;;;;;5072867;28;20277;-69
2021/12/07 08:18:15;;;;;;;6.07;2.83;;;3.60;99.90;;;;;;5049066;28;20197;-68
2021/12/07 08:20:43;;;;;;;3.45;2.65;;;3.60;99.90;;;;;;5082978;28;20409;-68
2021/12/07 08:23:10;;;;;;;4.53;1.65;;;3.70;99.90;;;;;;5084295;28;20207;-68
2021/12/07 08:25:40;;;;;;;6.32;2.75;;;3.80;99.90;;;;;;5076348;28;20256;-68
2021/12/07 08:28:08;;;;;;;7.13;1.55;;;3.90;99.90;;;;;;5078313;28;20201;-68
2021/12/07 08:30:35;;;;;;;4.60;2.30;;;4.00;99.90;;;;;;5082941;28;20217;-68
2021/12/07 08:33:04;;;;;;;6.75;2.10;;;4.10;99.90;;;;;;5072347;28;20201;-69
2021/12/07 08:35:31;;;;;;;5.95;1.63;;;4.20;99.90;;;;;;5067599;28;20289;-69
2021/12/07 08:37:58;;;;;;;7.82;1.90;;;4.30;99.90;;;;;;5077563;28;20578;-67
2021/12/07 08:40:27;;;;;;;5.95;1.90;;;4.40;99.90;;;;;;5085253;28;20652;-68
2021/12/07 08:42:54;;;;;;;2.47;2.28;;;4.50;99.90;;;;;;5074583;28;20263;-69
2021/12/07 08:45:23;;;;;;;5.68;2.35;;;4.60;99.90;;;;;;5064934;28;20544;-70
2021/12/07 08:47:50;;;;;;;8.02;2.08;;;4.80;99.90;;;;;;5061109;28;20270;-68
2021/12/07 08:50:20;;;;;;;2.05;1.60;;;4.90;99.90;;;;;;5066695;28;20234;-68
2021/12/07 08:52:48;;;;;;;3.50;2.00;;;4.90;99.90;;;;;;5078656;28;20222;-67
2021/12/07 09:00:46;;;;;;;2.85;1.83;;;5.10;99.90;;;;;;5069462;28;20341;-68
2021/12/07 09:03:13;;;;;;;3.63;1.88;;;5.00;99.90;;;;;;5071850;28;20210;-68
2021/12/07 09:05:41;;;;;;;3.15;2.03;;;5.00;99.90;;;;;;5071832;28;20597;-68
2021/12/07 09:08:07;;;;;;;2.25;2.08;;;5.10;99.90;;;;;;5085282;28;20196;-69
2021/12/07 09:10:34;;;;;;;7.82;2.17;;;5.20;99.90;;;;;;5083546;28;20239;-68
2021/12/07 09:13:01;;;;;;;1.73;1.58;;;5.30;99.90;;;;;;5073204;28;20291;-67
2021/12/07 09:15:28;;;;;;;4.50;1.85;;;5.30;99.90;;;;;;5066136;28;20258;-67
2021/12/07 09:17:55;;;;;;;8.45;2.15;;;5.40;99.90;;;;;;5061642;28;20259;-68
2021/12/07 09:20:21;;;;;;;3.05;1.60;;;5.50;99.90;;;;;;5068073;28;20231;-69
2021/12/07 09:22:49;;;;;;;2.25;1.13;;;5.60;99.90;;;;;;5076785;28;20201;-69
2021/12/07 09:25:17;;;;;;;1.55;1.45;;;5.90;99.90;;;;;;5070771;28;20530;-68
2021/12/07 09:27:45;;;;;;;7.18;2.22;;;6.00;99.90;;;;;;5074514;28;20291;-68
2021/12/07 09:30:14;;;;;;;2.55;1.25;;;5.90;99.90;;;;;;5081391;28;20234;-69
2021/12/07 09:32:41;;;;;;;6.53;2.10;;;5.80;99.90;;;;;;5077350;28;20618;-68
2021/12/07 09:35:09;;;;;;;4.25;2.83;;;5.70;99.90;;;;;;5078473;28;20260;-71
2021/12/07 09:37:37;;;;;;;2.15;1.50;;;5.80;99.90;;;;;;5067476;28;20571;-68
2021/12/07 09:40:08;;;;;;;4.18;1.95;;;5.90;99.90;;;;;;5073764;28;20223;-66
2021/12/07 09:42:35;;;;;;;4.47;2.00;;;6.10;99.90;;;;;;5070440;28;20201;-68
2021/12/07 09:45:01;;;;;;;3.92;2.95;;;6.30;99.90;;;;;;5064181;28;20647;-64
2021/12/07 09:47:28;;;;;;;2.50;2.30;;;6.60;99.90;;;;;;5061655;28;20584;-63
2021/12/07 09:49:55;;;;;;;5.95;2.40;;;6.90;99.90;;;;;;5065342;28;20250;-67
2021/12/07 09:52:22;;;;;;;6.78;2.05;;;7.20;99.90;;;;;;5071649;28;20231;-65
2021/12/07 09:54:49;;;;;;;3.05;1.40;;;7.40;99.90;;;;;;5064046;28;20294;-65
2021/12/07 09:57:17;;;;;;;12.18;4.15;;;7.30;99.90;;;;;;5067069;28;20215;-63
2021/12/07 09:59:44;;;;;;;4.20;2.67;;;7.10;99.90;;;;;;5074978;28;20697;-63
2021/12/07 10:02:11;;;;;;;2.30;1.73;;;7.00;99.90;;;;;;5061417;28;20623;-64
2021/12/07 10:04:37;;;;;;;2.63;2.05;;;6.90;99.90;;;;;;5060613;28;20198;-64
2021/12/07 10:07:04;;;;;;;7.03;2.40;;;7.00;99.90;;;;;;5057382;28;20281;-63
2021/12/07 10:09:31;;;;;;;5.13;2.03;;;7.10;99.90;;;;;;5064809;28;20234;-64
2021/12/07 10:11:58;;;;;;;6.57;1.60;;;7.20;99.90;;;;;;5067383;28;20223;-64
2021/12/07 10:14:37;;;;;;;1.35;1.25;;;7.30;99.90;;;;;;5067375;28;20207;-64
2021/12/07 10:17:03;;;;;;;5.35;1.73;;;7.40;99.90;;;;;;5073751;28;20241;-64
2021/12/07 10:19:32;;;;;;;3.85;1.85;;;7.60;99.90;;;;;;5080150;28;20297;-63
2021/12/07 10:22:01;;;;;;;3.25;2.00;;;7.80;99.90;;;;;;5070468;28;20198;-65
2021/12/07 10:24:37;;;;;;;5.97;2.75;;;7.90;99.90;;;;;;5065304;28;20331;-64
2021/12/07 10:27:04;;;;;;;5.28;1.77;;;8.00;99.90;;;;;;5067499;28;20289;-64
2021/12/07 10:29:32;;;;;;;6.38;1.70;;;8.10;99.90;;;;;;5067107;28;20636;-63
2021/12/07 10:32:02;;;;;;;3.85;1.88;;;8.10;99.90;;;;;;5068440;28;20289;-64
2021/12/07 10:34:32;;;;;;;4.40;2.30;;;8.20;99.90;;;;;;5081587;28;20288;-65
2021/12/07 10:37:07;;;;;;;6.53;2.78;;;8.30;99.90;;;;;;5081470;28;20608;-65
2021/12/07 10:39:36;;;;;;;1.70;1.60;;;8.20;99.90;;;;;;5087368;28;20684;-64
2021/12/07 10:42:05;;;;;;;4.82;1.88;;;8.30;99.90;;;;;;5073590;28;20452;-64
2021/12/07 10:44:36;;;;;;;5.73;2.10;;;8.30;99.90;;;;;;5062581;28;20194;-65
2021/12/07 10:47:05;;;;;;;2.10;1.40;;;8.40;99.90;;;;;;5068383;28;20461;-65
2021/12/07 10:49:35;;;;;;;3.73;1.70;;;8.30;99.90;;;;;;5074672;28;20561;-65
2021/12/07 10:52:24;;;;;;;4.57;1.53;;;8.20;99.90;;;;;;5082674;28;20541;-65
2021/12/07 10:55:01;;;;;;;3.55;1.17;;;8.20;99.90;;;;;;5078538;28;20946;-65
2021/12/07 10:57:30;;;;;;;1.67;1.57;;;8.30;99.90;;;;;;5073358;28;20244;-64
2021/12/07 11:00:16;;;;;;;1.83;1.43;;;8.20;99.90;;;;;;5066726;28;20850;-63
2021/12/07 11:02:46;;;;;;;1.07;0.97;;;8.20;99.90;;;;;;5067765;28;21000;-65
2021/12/07 11:05:20;;;;;;;3.80;1.50;;;8.10;99.90;;;;;;5071793;28;20460;-65
2021/12/07 11:07:47;;;;;;;2.05;1.13;;;8.10;99.90;;;;;;5076518;28;20857;-65
2021/12/07 11:10:19;;;;;;;2.55;1.90;;;8.00;99.90;;;;;;5076851;28;20235;-65
2021/12/07 11:12:52;;;;;;;0.90;0.70;;;7.90;99.90;;;;;;5082639;28;20224;-65
2021/12/07 11:15:26;;;;;;;1.08;0.85;;;7.90;99.90;;;;;;5067369;28;20207;-64
2021/12/07 11:17:55;;;;;;;1.20;1.10;;;7.90;99.90;;;;;;5071595;28;20285;-64
2021/12/07 11:20:22;;;;;;;1.05;0.88;;;7.90;99.90;;;;;;5054258;28;20290;-64
2021/12/07 11:22:53;;;;;;;1.52;1.20;;;7.90;99.90;;;;;;5081149;28;20276;-64
2021/12/07 11:25:53;;;;;;;4.95;1.50;;;7.90;99.90;;;;;;5066127;28;20275;-69
2021/12/07 11:31:20;;;;;;;1.58;0.70;;;8.10;99.90;;;;;;5062774;28;20588;-63
2021/12/07 11:33:48;;;;;;;1.00;0.90;;;8.20;99.90;;;;;;5063436;28;20247;-64
2021/12/07 11:36:18;;;;;;;1.67;0.90;;;8.20;99.90;;;;;;5067838;28;20341;-64
2021/12/07 11:38:45;;;;;;;4.93;1.35;;;8.40;99.90;;;;;;5075121;28;20582;-65
2021/12/07 11:41:20;;;;;;;1.20;1.10;;;8.50;99.90;;;;;;5079235;28;20208;-66
2021/12/07 11:43:59;;;;;;;1.58;0.73;;;8.60;99.90;;;;;;5070164;28;20473;-66
2021/12/07 11:46:29;;;;;;;4.77;1.90;;;8.80;99.90;;;;;;5079041;28;20276;-66
2021/12/07 11:49:08;;;;;;;2.23;1.20;;;8.90;99.90;;;;;;5072209;28;20478;-65
2021/12/07 11:51:34;;;;;;;1.17;0.60;;;8.90;99.90;;;;;;5066692;28;20453;-67
2021/12/07 11:54:01;;;;;;;2.53;1.37;;;9.00;99.90;;;;;;5068737;28;20524;-66
2021/12/07 11:56:28;;;;;;;1.40;1.10;;;9.20;99.90;;;;;;5060282;28;20816;-66
2021/12/07 11:58:55;;;;;;;11.90;2.00;;;9.20;99.90;;;;;;5063901;28;20477;-66
2021/12/07 12:01:21;;;;;;;2.60;0.80;;;9.30;99.90;;;;;;5081681;28;20852;-66
2021/12/07 12:03:49;;;;;;;4.38;1.20;;;9.30;99.90;;;;;;5056743;28;20491;-67
2021/12/07 12:06:16;;;;;;;3.50;1.00;;;9.40;99.90;;;;;;5073505;28;20269;-68
2021/12/07 12:08:43;;;;;;;2.77;1.07;;;9.40;99.90;;;;;;5070157;28;20521;-69
2021/12/07 12:11:18;;;;;;;3.00;1.17;;;9.40;99.90;;;;;;5080939;28;20460;-69
2021/12/07 12:13:54;;;;;;;1.23;0.83;;;9.50;99.90;;;;;;5070753;28;21624;-66
2021/12/07 12:16:25;;;;;;;3.90;0.70;;;9.40;99.90;;;;;;5065853;28;20553;-67
2021/12/07 12:19:06;;;;;;;1.73;1.10;;;9.30;99.90;;;;;;5058379;28;20531;-65
2021/12/07 12:21:37;;;;;;;0.70;0.50;;;9.20;99.90;;;;;;5076058;28;20905;-67
2021/12/07 12:24:17;;;;;;;0.83;0.73;;;9.20;99.90;;;;;;5077741;28;20451;-67
2021/12/07 12:26:45;;;;;;;1.20;0.73;;;9.20;99.90;;;;;;5080159;28;20443;-67
2021/12/07 12:29:19;;;;;;;0.87;0.87;;;9.20;99.90;;;;;;5065472;28;20828;-66
2021/12/07 12:31:50;;;;;;;1.40;0.80;;;9.50;99.90;;;;;;5064971;28;20461;-67
2021/12/07 12:34:20;;;;;;;1.60;1.20;;;9.70;99.90;;;;;;5061812;28;20446;-68
2021/12/07 12:37:07;;;;;;;2.70;1.03;;;9.80;99.90;;;;;;5080753;28;20821;-65
2021/12/07 12:39:47;;;;;;;1.80;1.60;;;9.80;99.90;;;;;;5059749;28;20512;-66
2021/12/07 12:42:17;;;;;;;4.00;1.53;;;9.70;99.90;;;;;;5078724;28;20958;-66
2021/12/07 12:44:44;;;;;;;1.27;0.60;;;9.50;99.90;;;;;;5062798;28;20445;-66
2021/12/07 12:47:11;;;;;;;0.90;0.67;;;9.40;99.90;;;;;;5069665;28;20884;-67
2021/12/07 12:49:42;;;;;;;2.00;1.00;;;9.40;99.90;;;;;;5068012;28;20477;-67
2021/12/07 12:52:11;;;;;;;2.10;1.13;;;9.40;99.90;;;;;;5065423;28;20484;-66
2021/12/07 12:54:44;;;;;;;2.80;1.53;;;9.50;99.90;;;;;;5054106;28;20956;-66
2021/12/07 12:57:13;;;;;;;0.93;0.57;;;9.50;99.90;;;;;;5065418;28;20522;-66
2021/12/07 12:59:42;;;;;;;0.60;0.50;;;9.60;99.90;;;;;;5068013;28;20993;-66
2021/12/07 13:02:10;;;;;;;3.57;0.67;;;9.40;99.90;;;;;;5075777;28;20518;-66
2021/12/07 13:04:37;;;;;;;2.40;1.07;;;9.30;99.90;;;;;;5062228;28;20836;-66
2021/12/07 13:09:47;;;;;;;1.47;0.77;;;9.00;99.90;;;;;;5059303;28;20647;-71
2021/12/07 13:12:17;;;;;;;0.87;0.50;;;8.80;99.90;;;;;;5059469;28;20446;-70
2021/12/07 13:15:00;;;;;;;2.27;0.77;;;8.50;99.90;;;;;;5069641;28;20447;-66
2021/12/07 13:17:33;;;;;;;0.90;0.90;;;8.30;99.90;;;;;;5067879;28;20455;-67
2021/12/07 13:20:29;;;;;;;1.00;0.90;;;8.10;99.90;;;;;;5066945;28;20470;-67
2021/12/07 13:23:10;;;;;;;1.23;0.53;;;8.10;99.90;;;;;;5022465;28;20549;-66
2021/12/07 13:25:40;;;;;;;0.95;0.60;;;8.10;99.90;;;;;;5056267;28;20472;-69
2021/12/07 13:28:17;;;;;;;4.10;1.52;;;8.00;99.90;;;;;;5070251;28;20257;-69
2021/12/07 13:30:50;;;;;;;4.23;0.90;;;7.90;99.90;;;;;;5065046;28;20246;-69
2021/12/07 13:33:20;;;;;;;2.35;1.13;;;7.90;99.90;;;;;;5073119;28;20492;-69
2021/12/07 13:35:49;;;;;;;0.60;0.60;;;7.90;99.90;;;;;;5065281;28;20728;-70
2021/12/07 13:38:20;;;;;;;1.25;1.15;;;7.90;99.90;;;;;;5057621;28;20294;-69
2021/12/07 13:40:48;;;;;;;3.15;1.33;;;7.70;99.90;;;;;;5073634;28;20235;-69
2021/12/07 13:43:31;;;;;;;2.05;0.95;;;7.50;99.90;;;;;;5058445;28;20195;-69
2021/12/07 13:46:10;;;;;;;1.05;1.00;;;7.50;99.90;;;;;;5065797;28;20214;-70
2021/12/07 13:48:37;;;;;;;0.93;0.80;;;7.40;99.90;;;;;;5061858;28;20205;-70
2021/12/07 13:51:04;;;;;;;1.02;0.93;;;7.40;99.90;;;;;;5067472;28;20523;-69
2021/12/07 13:53:33;;;;;;;1.67;0.80;;;7.30;99.90;;;;;;5063922;28;20226;-71
2021/12/07 13:56:00;;;;;;;2.20;1.15;;;7.10;99.90;;;;;;5063804;28;20500;-68
2021/12/07 13:58:31;;;;;;;1.02;0.68;;;7.00;99.90;;;;;;5064544;28;20290;-66
2021/12/07 14:01:02;;;;;;;1.27;0.90;;;6.90;99.90;;;;;;5058931;28;20717;-66
2021/12/07 14:03:29;;;;;;;0.68;0.50;;;6.80;99.90;;;;;;5075844;28;20198;-66
2021/12/07 14:05:56;;;;;;;2.10;1.17;;;6.60;99.90;;;;;;5069696;28;20279;-65
2021/12/07 14:08:24;;;;;;;1.25;1.15;;;6.50;99.90;;;;;;5075625;28;20610;-67
2021/12/07 14:10:55;;;;;;;0.50;0.43;;;6.40;99.90;;;;;;5053771;28;20236;-67
2021/12/07 14:13:23;;;;;;;7.07;1.30;;;6.40;99.90;;;;;;5065013;28;20279;-67
2021/12/07 14:15:51;;;;;;;1.10;0.70;;;6.30;99.90;;;;;;5066769;28;20234;-68
2021/12/07 14:18:23;;;;;;;2.80;1.08;;;6.30;99.90;;;;;;5071905;28;20264;-66
2021/12/07 14:20:54;;;;;;;9.80;1.92;;;6.10;99.90;;;;;;5077922;28;20296;-66
2021/12/07 14:23:24;;;;;;;1.65;0.75;;;6.10;99.90;;;;;;5065386;28;20288;-65
2021/12/07 14:25:55;;;;;;;1.23;0.90;;;6.10;99.90;;;;;;5054250;28;20279;-66